Norias, Texas
Current Conditions -  °F | °C
As of 3:15 AM on Monday 22 Dec 2014 (Local Time) from KEBG Reporting Station
Haze Haze  
Wind Chill: 60°   Ceiling: Unl
Heat Index: 60°   Visibility: 3mi
Dew Point: 57°   Wind: 0mph
Humidity: 90%   Direction: NA
Pressure: 29.81"   Gusts: NA
Location:  26.8954°N, 97.7184°W
Report Text: KEBG 220915Z AUTO 00000KT 3SM BR CLR 16/14 A2981 RMK AO2 T01560140
Loading
Personal Weather Stations






























Interactive Weather Map New forecast layout! Learn more

10-Day Weather Forecast

Advertisements
Track Severe Weather on mobile